sensor_id;sensor_type;location;lat;lon;timestamp;pressure;altitude;pressure_sealevel;temperature;humidity
19457;BME280;9867;48.094;11.478;2023-04-06T00:02:08;95404.31;;;0.46;100.00
19457;BME280;9867;48.094;11.478;2023-04-06T00:04:36;95396.84;;;0.34;100.00
19457;BME280;9867;48.094;11.478;2023-04-06T00:07:04;95398.31;;;0.37;100.00
19457;BME280;9867;48.094;11.478;2023-04-06T00:09:32;95396.84;;;0.34;100.00
19457;BME280;9867;48.094;11.478;2023-04-06T00:12:01;95394.06;;;0.38;100.00
19457;BME280;9867;48.094;11.478;2023-04-06T00:14:29;95391.97;;;0.43;100.00
19457;BME280;9867;48.094;11.478;2023-04-06T00:16:57;95403.59;;;0.34;100.00
19457;BME280;9867;48.094;11.478;2023-04-06T00:19:25;95391.09;;;0.32;100.00
19457;BME280;9867;48.094;11.478;2023-04-06T00:21:53;95401.03;;;0.24;100.00
19457;BME280;9867;48.094;11.478;2023-04-06T00:24:21;95390.09;;;0.45;100.00
19457;BME280;9867;48.094;11.478;2023-04-06T00:26:49;95387.44;;;0.46;100.00
19457;BME280;9867;48.094;11.478;2023-04-06T00:29:18;95394.69;;;0.30;100.00
19457;BME280;9867;48.094;11.478;2023-04-06T00:31:46;95390.47;;;0.40;100.00
19457;BME280;9867;48.094;11.478;2023-04-06T00:34:14;95384.69;;;0.19;100.00
19457;BME280;9867;48.094;11.478;2023-04-06T00:36:42;95396.66;;;0.26;100.00
19457;BME280;9867;48.094;11.478;2023-04-06T00:39:10;95389.78;;;-0.02;100.00
19457;BME280;9867;48.094;11.478;2023-04-06T00:41:39;95385.59;;;-0.13;100.00
19457;BME280;9867;48.094;11.478;2023-04-06T00:44:13;95393.66;;;-0.19;100.00
19457;BME280;9867;48.094;11.478;2023-04-06T00:46:43;95393.63;;;-0.28;100.00
19457;BME280;9867;48.094;11.478;2023-04-06T00:49:11;95394.31;;;-0.26;100.00
19457;BME280;9867;48.094;11.478;2023-04-06T00:51:39;95367.44;;;-0.37;100.00
19457;BME280;9867;48.094;11.478;2023-04-06T00:54:07;95392.69;;;-0.27;100.00
19457;BME280;9867;48.094;11.478;2023-04-06T00:56:35;95391.91;;;-0.28;100.00
19457;BME280;9867;48.094;11.478;2023-04-06T00:59:03;95381.75;;;-0.38;100.00
19457;BME280;9867;48.094;11.478;2023-04-06T01:01:31;95384.19;;;-0.47;100.00
19457;BME280;9867;48.094;11.478;2023-04-06T01:04:08;95388.59;;;-0.49;100.00
19457;BME280;9867;48.094;11.478;2023-04-06T01:06:40;95396.75;;;-0.57;100.00
19457;BME280;9867;48.094;11.478;2023-04-06T01:09:08;95404.22;;;-0.46;100.00
19457;BME280;9867;48.094;11.478;2023-04-06T01:11:36;95397.00;;;-0.60;100.00
19457;BME280;9867;48.094;11.478;2023-04-06T01:14:09;95400.66;;;-0.64;100.00
19457;BME280;9867;48.094;11.478;2023-04-06T01:16:50;95396.00;;;-0.69;100.00
19457;BME280;9867;48.094;11.478;2023-04-06T01:19:24;95389.13;;;-0.66;100.00
19457;BME280;9867;48.094;11.478;2023-04-06T01:21:53;95384.47;;;-0.71;100.00
19457;BME280;9867;48.094;11.478;2023-04-06T01:24:32;95386.41;;;-0.75;100.00
19457;BME280;9867;48.094;11.478;2023-04-06T01:27:08;95381.16;;;-0.72;100.00
19457;BME280;9867;48.094;11.478;2023-04-06T01:30:02;95375.84;;;-0.69;100.00
19457;BME280;9867;48.094;11.478;2023-04-06T01:32:42;95380.50;;;-0.64;100.00
19457;BME280;9867;48.094;11.478;2023-04-06T01:35:13;95374.19;;;-0.58;100.00
19457;BME280;9867;48.094;11.478;2023-04-06T01:37:49;95378.31;;;-0.57;100.00
19457;BME280;9867;48.094;11.478;2023-04-06T01:40:26;95370.56;;;-0.65;100.00
19457;BME280;9867;48.094;11.478;2023-04-06T01:42:55;95370.44;;;-0.64;100.00
19457;BME280;9867;48.094;11.478;2023-04-06T01:45:32;95368.78;;;-0.54;100.00
19457;BME280;9867;48.094;11.478;2023-04-06T01:48:09;95365.75;;;-0.69;100.00
19457;BME280;9867;48.094;11.478;2023-04-06T01:50:37;95369.16;;;-0.79;100.00
19457;BME280;9867;48.094;11.478;2023-04-06T01:53:07;95366.88;;;-0.82;100.00
19457;BME280;9867;48.094;11.478;2023-04-06T01:55:38;95364.16;;;-0.90;100.00
19457;BME280;9867;48.094;11.478;2023-04-06T01:58:26;95371.22;;;-0.84;100.00
19457;BME280;9867;48.094;11.478;2023-04-06T02:00:54;95368.25;;;-0.89;100.00
19457;BME280;9867;48.094;11.478;2023-04-06T02:03:23;95373.53;;;-0.92;100.00
19457;BME280;9867;48.094;11.478;2023-04-06T02:06:00;95365.88;;;-0.91;100.00
19457;BME280;9867;48.094;11.478;2023-04-06T02:08:33;95368.88;;;-0.97;100.00
19457;BME280;9867;48.094;11.478;2023-04-06T02:11:03;95362.06;;;-0.85;100.00
19457;BME280;9867;48.094;11.478;2023-04-06T02:13:38;95367.31;;;-0.77;100.00
19457;BME280;9867;48.094;11.478;2023-04-06T02:16:06;95364.59;;;-0.64;100.00
19457;BME280;9867;48.094;11.478;2023-04-06T02:18:34;95363.75;;;-0.75;100.00
19457;BME280;9867;48.094;11.478;2023-04-06T02:21:02;95357.25;;;-0.77;100.00
19457;BME280;9867;48.094;11.478;2023-04-06T02:23:30;95360.13;;;-0.82;100.00
19457;BME280;9867;48.094;11.478;2023-04-06T02:25:58;95360.72;;;-0.89;100.00
19457;BME280;9867;48.094;11.478;2023-04-06T02:28:27;95362.31;;;-0.88;100.00
19457;BME280;9867;48.094;11.478;2023-04-06T02:31:00;95364.16;;;-0.90;100.00
19457;BME280;9867;48.094;11.478;2023-04-06T02:33:28;95363.91;;;-0.87;100.00
19457;BME280;9867;48.094;11.478;2023-04-06T02:35:57;95359.78;;;-0.88;100.00
19457;BME280;9867;48.094;11.478;2023-04-06T02:38:25;95362.53;;;-0.91;100.00
19457;BME280;9867;48.094;11.478;2023-04-06T02:40:52;95361.63;;;-0.90;100.00
19457;BME280;9867;48.094;11.478;2023-04-06T02:43:23;95350.16;;;-0.83;100.00
19457;BME280;9867;48.094;11.478;2023-04-06T02:46:01;95364.59;;;-0.85;100.00
19457;BME280;9867;48.094;11.478;2023-04-06T02:48:32;95357.41;;;-0.90;100.00
19457;BME280;9867;48.094;11.478;2023-04-06T02:51:03;95341.78;;;-0.73;100.00
19457;BME280;9867;48.094;11.478;2023-04-06T02:53:32;95355.41;;;-0.75;100.00
19457;BME280;9867;48.094;11.478;2023-04-06T02:56:00;95350.84;;;-0.81;100.00
19457;BME280;9867;48.094;11.478;2023-04-06T02:58:39;95346.72;;;-0.82;100.00
19457;BME280;9867;48.094;11.478;2023-04-06T03:01:08;95349.72;;;-0.68;100.00
19457;BME280;9867;48.094;11.478;2023-04-06T03:03:38;95348.13;;;-0.69;100.00
19457;BME280;9867;48.094;11.478;2023-04-06T03:06:12;95349.94;;;-0.80;100.00
19457;BME280;9867;48.094;11.478;2023-04-06T03:08:40;95350.72;;;-0.80;100.00
19457;BME280;9867;48.094;11.478;2023-04-06T03:11:08;95346.72;;;-0.82;100.00
19457;BME280;9867;48.094;11.478;2023-04-06T03:13:39;95349.72;;;-0.88;100.00
19457;BME280;9867;48.094;11.478;2023-04-06T03:16:10;95336.09;;;-0.86;100.00
19457;BME280;9867;48.094;11.478;2023-04-06T03:18:39;95347.97;;;-0.77;100.00
19457;BME280;9867;48.094;11.478;2023-04-06T03:21:07;95347.09;;;-0.87;100.00
19457;BME280;9867;48.094;11.478;2023-04-06T03:23:46;95352.25;;;-0.88;100.00
19457;BME280;9867;48.094;11.478;2023-04-06T03:26:16;95349.84;;;-0.90;100.00
19457;BME280;9867;48.094;11.478;2023-04-06T03:28:44;95358.41;;;-0.81;100.00
19457;BME280;9867;48.094;11.478;2023-04-06T03:31:14;95354.16;;;-0.81;100.00
19457;BME280;9867;48.094;11.478;2023-04-06T03:33:52;95352.75;;;-0.74;100.00
19457;BME280;9867;48.094;11.478;2023-04-06T03:36:30;95355.78;;;-0.91;100.00
19457;BME280;9867;48.094;11.478;2023-04-06T03:38:59;95363.75;;;-1.07;100.00
19457;BME280;9867;48.094;11.478;2023-04-06T03:41:30;95356.97;;;-0.95;100.00
19457;BME280;9867;48.094;11.478;2023-04-06T03:44:21;95363.41;;;-1.02;100.00
19457;BME280;9867;48.094;11.478;2023-04-06T03:46:50;95357.69;;;-1.04;100.00
19457;BME280;9867;48.094;11.478;2023-04-06T03:49:19;95365.13;;;-1.02;100.00
19457;BME280;9867;48.094;11.478;2023-04-06T03:51:49;95362.66;;;-0.93;100.00
19457;BME280;9867;48.094;11.478;2023-04-06T03:54:17;95375.31;;;-0.72;100.00
19457;BME280;9867;48.094;11.478;2023-04-06T03:56:45;95370.56;;;-0.65;100.00
19457;BME280;9867;48.094;11.478;2023-04-06T03:59:13;95368.38;;;-0.91;100.00
19457;BME280;9867;48.094;11.478;2023-04-06T04:01:41;95369.75;;;-0.87;100.00
19457;BME280;9867;48.094;11.478;2023-04-06T04:04:11;95380.84;;;-0.89;100.00
19457;BME280;9867;48.094;11.478;2023-04-06T04:06:39;95374.47;;;-0.93;100.00
19457;BME280;9867;48.094;11.478;2023-04-06T04:09:07;95380.22;;;-1.02;100.00
19457;BME280;9867;48.094;11.478;2023-04-06T04:11:35;95379.78;;;-1.08;100.00
19457;BME280;9867;48.094;11.478;2023-04-06T04:14:03;95374.66;;;-1.17;100.00
19457;BME280;9867;48.094;11.478;2023-04-06T04:16:31;95379.91;;;-1.09;100.00
19457;BME280;9867;48.094;11.478;2023-04-06T04:18:59;95380.13;;;-1.12;100.00
19457;BME280;9867;48.094;11.478;2023-04-06T04:21:31;95374.63;;;-1.06;100.00
19457;BME280;9867;48.094;11.478;2023-04-06T04:24:05;95378.75;;;-1.16;100.00
19457;BME280;9867;48.094;11.478;2023-04-06T04:26:34;95383.25;;;-1.20;100.00
19457;BME280;9867;48.094;11.478;2023-04-06T04:29:03;95375.72;;;-1.20;100.00
19457;BME280;9867;48.094;11.478;2023-04-06T04:31:31;95378.28;;;-1.10;100.00
19457;BME280;9867;48.094;11.478;2023-04-06T04:34:02;95378.97;;;-1.08;100.00
19457;BME280;9867;48.094;11.478;2023-04-06T04:36:36;95380.47;;;-1.17;100.00
19457;BME280;9867;48.094;11.478;2023-04-06T04:39:07;95372.94;;;-1.17;100.00
19457;BME280;9867;48.094;11.478;2023-04-06T04:41:40;95379.19;;;-1.00;100.00
19457;BME280;9867;48.094;11.478;2023-04-06T04:44:10;95380.47;;;-0.74;100.00
19457;BME280;9867;48.094;11.478;2023-04-06T04:46:39;95360.88;;;-1.02;100.00
19457;BME280;9867;48.094;11.478;2023-04-06T04:49:09;95385.28;;;-0.82;100.00
19457;BME280;9867;48.094;11.478;2023-04-06T04:51:40;95381.28;;;-0.84;100.00
19457;BME280;9867;48.094;11.478;2023-04-06T04:54:15;95377.88;;;-0.83;100.00
19457;BME280;9867;48.094;11.478;2023-04-06T04:56:43;95378.53;;;-0.81;100.00
19457;BME280;9867;48.094;11.478;2023-04-06T04:59:27;95383.00;;;-0.85;100.00
19457;BME280;9867;48.094;11.478;2023-04-06T05:02:05;95385.44;;;-0.94;100.00
19457;BME280;9867;48.094;11.478;2023-04-06T05:04:43;95382.81;;;-0.93;100.00
19457;BME280;9867;48.094;11.478;2023-04-06T05:07:20;95375.00;;;-0.90;100.00
19457;BME280;9867;48.094;11.478;2023-04-06T05:09:51;95382.44;;;-0.88;100.00
19457;BME280;9867;48.094;11.478;2023-04-06T05:12:20;95386.31;;;-0.73;100.00
19457;BME280;9867;48.094;11.478;2023-04-06T05:14:59;95388.38;;;-0.78;100.00
19457;BME280;9867;48.094;11.478;2023-04-06T05:17:27;95381.00;;;-0.70;100.00
19457;BME280;9867;48.094;11.478;2023-04-06T05:19:55;95381.16;;;-0.51;100.00
19457;BME280;9867;48.094;11.478;2023-04-06T05:22:26;95379.47;;;-0.41;100.00
19457;BME280;9867;48.094;11.478;2023-04-06T05:25:05;95389.44;;;-0.39;100.00
19457;BME280;9867;48.094;11.478;2023-04-06T05:27:33;95391.38;;;-0.22;100.00
19457;BME280;9867;48.094;11.478;2023-04-06T05:30:07;95394.19;;;-0.25;100.00
19457;BME280;9867;48.094;11.478;2023-04-06T05:32:41;95374.53;;;-0.21;100.00
19457;BME280;9867;48.094;11.478;2023-04-06T05:35:11;95394.22;;;-0.15;100.00
19457;BME280;9867;48.094;11.478;2023-04-06T05:37:42;95389.72;;;-0.12;100.00
19457;BME280;9867;48.094;11.478;2023-04-06T05:40:10;95386.34;;;-0.01;100.00
19457;BME280;9867;48.094;11.478;2023-04-06T05:42:38;95398.44;;;0.05;100.00
19457;BME280;9867;48.094;11.478;2023-04-06T05:45:08;95397.06;;;0.22;100.00
19457;BME280;9867;48.094;11.478;2023-04-06T05:47:38;95393.34;;;0.26;100.00
19457;BME280;9867;48.094;11.478;2023-04-06T05:50:18;95388.84;;;0.29;100.00
19457;BME280;9867;48.094;11.478;2023-04-06T05:52:47;95393.81;;;0.10;100.00
19457;BME280;9867;48.094;11.478;2023-04-06T05:55:18;95400.81;;;0.07;100.00
19457;BME280;9867;48.094;11.478;2023-04-06T05:57:52;95399.47;;;0.23;100.00
19457;BME280;9867;48.094;11.478;2023-04-06T06:00:21;95396.59;;;0.38;100.00
19457;BME280;9867;48.094;11.478;2023-04-06T06:02:59;95399.16;;;0.57;100.00
19457;BME280;9867;48.094;11.478;2023-04-06T06:05:30;95393.47;;;0.64;100.00
19457;BME280;9867;48.094;11.478;2023-04-06T06:08:08;95396.13;;;0.73;100.00
19457;BME280;9867;48.094;11.478;2023-04-06T06:10:38;95392.16;;;0.80;100.00
19457;BME280;9867;48.094;11.478;2023-04-06T06:13:08;95400.06;;;1.06;100.00
19457;BME280;9867;48.094;11.478;2023-04-06T06:15:38;95393.56;;;1.42;100.00
19457;BME280;9867;48.094;11.478;2023-04-06T06:18:08;95398.44;;;1.43;100.00
19457;BME280;9867;48.094;11.478;2023-04-06T06:20:36;95398.31;;;1.64;100.00
19457;BME280;9867;48.094;11.478;2023-04-06T06:23:05;95389.91;;;1.73;100.00
19457;BME280;9867;48.094;11.478;2023-04-06T06:25:34;95404.13;;;1.84;100.00
19457;BME280;9867;48.094;11.478;2023-04-06T06:28:03;95398.91;;;1.95;100.00
19457;BME280;9867;48.094;11.478;2023-04-06T06:30:31;95396.03;;;2.17;100.00
19457;BME280;9867;48.094;11.478;2023-04-06T06:32:59;95387.31;;;2.39;100.00
19457;BME280;9867;48.094;11.478;2023-04-06T06:35:29;95391.00;;;2.45;100.00
19457;BME280;9867;48.094;11.478;2023-04-06T06:38:01;95389.38;;;2.53;100.00
19457;BME280;9867;48.094;11.478;2023-04-06T06:40:29;95393.72;;;2.88;100.00
19457;BME280;9867;48.094;11.478;2023-04-06T06:42:59;95409.28;;;3.11;100.00
19457;BME280;9867;48.094;11.478;2023-04-06T06:45:47;95393.00;;;3.31;100.00
19457;BME280;9867;48.094;11.478;2023-04-06T06:48:15;95401.00;;;3.80;100.00
19457;BME280;9867;48.094;11.478;2023-04-06T06:50:43;95393.69;;;4.03;100.00
19457;BME280;9867;48.094;11.478;2023-04-06T06:53:12;95398.09;;;4.19;100.00
19457;BME280;9867;48.094;11.478;2023-04-06T06:55:40;95398.22;;;4.17;100.00
19457;BME280;9867;48.094;11.478;2023-04-06T06:58:09;95400.78;;;4.25;100.00
19457;BME280;9867;48.094;11.478;2023-04-06T07:00:37;95404.34;;;4.06;100.00
19457;BME280;9867;48.094;11.478;2023-04-06T07:03:06;95406.44;;;4.11;100.00
19457;BME280;9867;48.094;11.478;2023-04-06T07:05:35;95409.56;;;4.05;100.00
19457;BME280;9867;48.094;11.478;2023-04-06T07:08:06;95403.53;;;4.06;100.00
19457;BME280;9867;48.094;11.478;2023-04-06T07:10:34;95417.88;;;4.15;100.00
19457;BME280;9867;48.094;11.478;2023-04-06T07:13:04;95410.78;;;4.19;100.00
19457;BME280;9867;48.094;11.478;2023-04-06T07:15:34;95415.88;;;4.27;100.00
19457;BME280;9867;48.094;11.478;2023-04-06T07:18:03;95418.91;;;4.22;100.00
19457;BME280;9867;48.094;11.478;2023-04-06T07:20:31;95416.84;;;4.60;100.00
19457;BME280;9867;48.094;11.478;2023-04-06T07:22:59;95411.19;;;4.82;94.18
19457;BME280;9867;48.094;11.478;2023-04-06T07:25:29;95411.19;;;4.82;91.23
19457;BME280;9867;48.094;11.478;2023-04-06T07:27:57;95416.97;;;4.92;85.16
19457;BME280;9867;48.094;11.478;2023-04-06T07:30:25;95412.25;;;5.13;86.74
19457;BME280;9867;48.094;11.478;2023-04-06T07:32:56;95421.00;;;5.27;84.00
19457;BME280;9867;48.094;11.478;2023-04-06T07:35:26;95412.63;;;5.43;79.19
19457;BME280;9867;48.094;11.478;2023-04-06T07:37:57;95414.97;;;5.44;77.11
19457;BME280;9867;48.094;11.478;2023-04-06T07:40:25;95418.50;;;5.52;75.30
19457;BME280;9867;48.094;11.478;2023-04-06T07:42:55;95400.34;;;5.30;76.42
19457;BME280;9867;48.094;11.478;2023-04-06T07:45:24;95414.16;;;5.28;76.29
19457;BME280;9867;48.094;11.478;2023-04-06T07:47:52;95412.59;;;5.35;77.66
19457;BME280;9867;48.094;11.478;2023-04-06T07:50:22;95411.63;;;5.44;80.54
19457;BME280;9867;48.094;11.478;2023-04-06T07:52:51;95415.50;;;5.64;76.81
19457;BME280;9867;48.094;11.478;2023-04-06T07:55:19;95410.25;;;5.98;76.63
19457;BME280;9867;48.094;11.478;2023-04-06T07:57:47;95410.03;;;6.16;72.69
19457;BME280;9867;48.094;11.478;2023-04-06T08:00:15;95416.50;;;6.43;69.42
19457;BME280;9867;48.094;11.478;2023-04-06T08:02:43;95410.84;;;6.72;69.55
19457;BME280;9867;48.094;11.478;2023-04-06T08:05:11;95402.94;;;6.90;66.51
19457;BME280;9867;48.094;11.478;2023-04-06T08:07:41;95395.59;;;6.95;64.35
19457;BME280;9867;48.094;11.478;2023-04-06T08:10:09;95403.34;;;6.78;61.58
19457;BME280;9867;48.094;11.478;2023-04-06T08:12:37;95401.94;;;7.07;60.72
19457;BME280;9867;48.094;11.478;2023-04-06T08:15:06;95411.41;;;7.21;62.82
19457;BME280;9867;48.094;11.478;2023-04-06T08:17:34;95415.09;;;7.41;62.25
19457;BME280;9867;48.094;11.478;2023-04-06T08:20:02;95403.34;;;7.32;58.94
19457;BME280;9867;48.094;11.478;2023-04-06T08:22:31;95404.88;;;9.19;58.25
19457;BME280;9867;48.094;11.478;2023-04-06T08:25:00;95401.41;;;9.48;51.14
19457;BME280;9867;48.094;11.478;2023-04-06T08:27:28;95404.44;;;9.16;49.91
19457;BME280;9867;48.094;11.478;2023-04-06T08:29:56;95389.53;;;9.41;52.06
19457;BME280;9867;48.094;11.478;2023-04-06T08:32:25;95395.31;;;9.99;56.00
19457;BME280;9867;48.094;11.478;2023-04-06T08:34:53;95399.84;;;9.97;54.87
19457;BME280;9867;48.094;11.478;2023-04-06T08:37:21;95398.03;;;8.02;51.48
19457;BME280;9867;48.094;11.478;2023-04-06T08:39:49;95398.88;;;9.12;51.77
19457;BME280;9867;48.094;11.478;2023-04-06T08:42:21;95402.25;;;8.47;49.91
19457;BME280;9867;48.094;11.478;2023-04-06T08:44:49;95400.03;;;8.07;50.96
19457;BME280;9867;48.094;11.478;2023-04-06T08:47:19;95395.56;;;8.97;50.10
19457;BME280;9867;48.094;11.478;2023-04-06T08:49:50;95398.19;;;9.04;47.88
19457;BME280;9867;48.094;11.478;2023-04-06T08:52:19;95399.06;;;8.45;47.03
19457;BME280;9867;48.094;11.478;2023-04-06T08:54:47;95396.81;;;8.86;47.57
19457;BME280;9867;48.094;11.478;2023-04-06T08:57:16;95395.69;;;9.10;47.89
19457;BME280;9867;48.094;11.478;2023-04-06T08:59:45;95401.28;;;8.48;46.53
19457;BME280;9867;48.094;11.478;2023-04-06T09:02:17;95399.56;;;7.88;47.22
19457;BME280;9867;48.094;11.478;2023-04-06T09:04:46;95393.53;;;7.67;52.03
19457;BME280;9867;48.094;11.478;2023-04-06T09:07:15;95393.44;;;8.12;50.71
19457;BME280;9867;48.094;11.478;2023-04-06T09:09:44;95392.19;;;8.08;50.07
19457;BME280;9867;48.094;11.478;2023-04-06T09:12:25;95393.09;;;8.30;48.53
19457;BME280;9867;48.094;11.478;2023-04-06T09:14:55;95383.50;;;8.03;47.51
19457;BME280;9867;48.094;11.478;2023-04-06T09:17:25;95388.03;;;8.45;47.78
19457;BME280;9867;48.094;11.478;2023-04-06T09:19:53;95382.66;;;8.69;47.33
19457;BME280;9867;48.094;11.478;2023-04-06T09:22:22;95391.66;;;9.37;45.59
19457;BME280;9867;48.094;11.478;2023-04-06T09:24:53;95392.53;;;9.44;46.54
19457;BME280;9867;48.094;11.478;2023-04-06T09:27:30;95388.56;;;8.70;45.85
19457;BME280;9867;48.094;11.478;2023-04-06T09:30:05;95390.81;;;8.20;45.45
19457;BME280;9867;48.094;11.478;2023-04-06T09:32:44;95392.31;;;8.15;46.83
19457;BME280;9867;48.094;11.478;2023-04-06T09:35:13;95387.94;;;8.38;48.34
19457;BME280;9867;48.094;11.478;2023-04-06T09:37:42;95385.78;;;7.98;47.74
19457;BME280;9867;48.094;11.478;2023-04-06T09:40:11;95381.00;;;8.09;48.27
19457;BME280;9867;48.094;11.478;2023-04-06T09:42:40;95383.78;;;8.23;48.51
19457;BME280;9867;48.094;11.478;2023-04-06T09:45:10;95383.88;;;8.73;50.18
19457;BME280;9867;48.094;11.478;2023-04-06T09:47:43;95377.66;;;8.82;48.77
19457;BME280;9867;48.094;11.478;2023-04-06T09:50:13;95376.44;;;8.93;47.60
19457;BME280;9867;48.094;11.478;2023-04-06T09:52:46;95377.03;;;8.95;47.73
19457;BME280;9867;48.094;11.478;2023-04-06T09:55:21;95374.00;;;8.70;45.16
19457;BME280;9867;48.094;11.478;2023-04-06T09:57:55;95384.59;;;8.38;45.12
19457;BME280;9867;48.094;11.478;2023-04-06T10:00:27;95387.03;;;8.16;46.11
19457;BME280;9867;48.094;11.478;2023-04-06T10:02:58;95382.72;;;8.17;45.70
19457;BME280;9867;48.094;11.478;2023-04-06T10:05:38;95386.66;;;8.05;45.35
19457;BME280;9867;48.094;11.478;2023-04-06T10:08:10;95385.19;;;8.25;45.49
19457;BME280;9867;48.094;11.478;2023-04-06T10:10:39;95368.34;;;8.16;45.34
19457;BME280;9867;48.094;11.478;2023-04-06T10:13:08;95371.47;;;8.41;45.06
19457;BME280;9867;48.094;11.478;2023-04-06T10:15:39;95370.22;;;8.37;44.50
19457;BME280;9867;48.094;11.478;2023-04-06T10:18:08;95366.63;;;8.46;44.21
19457;BME280;9867;48.094;11.478;2023-04-06T10:20:41;95365.63;;;8.62;46.89
19457;BME280;9867;48.094;11.478;2023-04-06T10:23:13;95360.13;;;8.79;46.89
19457;BME280;9867;48.094;11.478;2023-04-06T10:25:52;95360.56;;;8.83;45.02
19457;BME280;9867;48.094;11.478;2023-04-06T10:28:21;95362.94;;;9.20;44.75
19457;BME280;9867;48.094;11.478;2023-04-06T10:30:57;95349.56;;;9.96;44.22
19457;BME280;9867;48.094;11.478;2023-04-06T10:33:26;95352.41;;;10.07;45.56
19457;BME280;9867;48.094;11.478;2023-04-06T10:35:54;95356.97;;;9.84;44.16
19457;BME280;9867;48.094;11.478;2023-04-06T10:38:33;95361.09;;;9.36;41.80
19457;BME280;9867;48.094;11.478;2023-04-06T10:41:06;95350.94;;;9.42;42.48
19457;BME280;9867;48.094;11.478;2023-04-06T10:43:37;95347.31;;;9.58;44.04
19457;BME280;9867;48.094;11.478;2023-04-06T10:46:08;95347.94;;;9.17;42.68
19457;BME280;9867;48.094;11.478;2023-04-06T10:48:37;95347.50;;;9.35;42.01
19457;BME280;9867;48.094;11.478;2023-04-06T10:51:10;95350.41;;;8.89;42.42
19457;BME280;9867;48.094;11.478;2023-04-06T10:53:41;95347.22;;;8.87;43.07
19457;BME280;9867;48.094;11.478;2023-04-06T10:56:10;95343.28;;;9.06;43.19
19457;BME280;9867;48.094;11.478;2023-04-06T10:58:44;95335.00;;;9.04;44.35
19457;BME280;9867;48.094;11.478;2023-04-06T11:01:14;95345.06;;;9.27;44.99
19457;BME280;9867;48.094;11.478;2023-04-06T11:03:43;95344.72;;;9.79;42.42
19457;BME280;9867;48.094;11.478;2023-04-06T11:06:17;95350.50;;;9.60;42.69
19457;BME280;9867;48.094;11.478;2023-04-06T11:08:45;95348.50;;;10.18;42.53
19457;BME280;9867;48.094;11.478;2023-04-06T11:11:14;95334.16;;;9.89;41.25
19457;BME280;9867;48.094;11.478;2023-04-06T11:13:49;95333.97;;;9.63;41.96
19457;BME280;9867;48.094;11.478;2023-04-06T11:16:19;95337.94;;;9.72;41.86
19457;BME280;9867;48.094;11.478;2023-04-06T11:18:52;95325.13;;;9.65;42.17
19457;BME280;9867;48.094;11.478;2023-04-06T11:21:31;95327.94;;;10.05;42.40
19457;BME280;9867;48.094;11.478;2023-04-06T11:24:07;95316.59;;;10.55;44.66
19457;BME280;9867;48.094;11.478;2023-04-06T11:26:39;95318.59;;;10.59;41.80
19457;BME280;9867;48.094;11.478;2023-04-06T11:29:08;95318.34;;;11.28;43.06
19457;BME280;9867;48.094;11.478;2023-04-06T11:31:41;95311.97;;;10.91;40.40
19457;BME280;9867;48.094;11.478;2023-04-06T11:34:13;95319.13;;;10.14;39.21
19457;BME280;9867;48.094;11.478;2023-04-06T11:36:44;95314.53;;;10.37;40.27
19457;BME280;9867;48.094;11.478;2023-04-06T11:39:19;95305.75;;;10.59;39.97
19457;BME280;9867;48.094;11.478;2023-04-06T11:41:48;95308.41;;;10.92;40.24
19457;BME280;9867;48.094;11.478;2023-04-06T11:44:28;95309.38;;;10.78;42.14
19457;BME280;9867;48.094;11.478;2023-04-06T11:46:58;95306.88;;;10.09;43.58
19457;BME280;9867;48.094;11.478;2023-04-06T11:49:27;95309.59;;;9.24;42.58
19457;BME280;9867;48.094;11.478;2023-04-06T11:51:55;95304.66;;;9.01;44.02
19457;BME280;9867;48.094;11.478;2023-04-06T11:54:30;95307.28;;;9.29;44.41
19457;BME280;9867;48.094;11.478;2023-04-06T11:56:58;95318.81;;;9.18;43.42
19457;BME280;9867;48.094;11.478;2023-04-06T11:59:27;95301.75;;;9.53;42.93
19457;BME280;9867;48.094;11.478;2023-04-06T12:01:56;95304.09;;;9.27;44.29
19457;BME280;9867;48.094;11.478;2023-04-06T12:04:25;95307.19;;;9.16;42.65
19457;BME280;9867;48.094;11.478;2023-04-06T12:06:54;95298.63;;;9.30;43.47
19457;BME280;9867;48.094;11.478;2023-04-06T12:09:24;95290.47;;;9.41;42.83
19457;BME280;9867;48.094;11.478;2023-04-06T12:11:52;95297.66;;;9.31;42.52
19457;BME280;9867;48.094;11.478;2023-04-06T12:14:20;95305.75;;;9.35;43.28
19457;BME280;9867;48.094;11.478;2023-04-06T12:16:48;95295.88;;;9.32;42.53
19457;BME280;9867;48.094;11.478;2023-04-06T12:19:16;95281.63;;;10.06;42.09
19457;BME280;9867;48.094;11.478;2023-04-06T12:21:46;95290.19;;;10.20;41.03
19457;BME280;9867;48.094;11.478;2023-04-06T12:24:14;95277.84;;;10.02;42.34
19457;BME280;9867;48.094;11.478;2023-04-06T12:26:42;95271.38;;;10.47;42.67
19457;BME280;9867;48.094;11.478;2023-04-06T12:29:10;95275.41;;;10.76;40.95
19457;BME280;9867;48.094;11.478;2023-04-06T12:31:39;95286.06;;;10.80;39.44
19457;BME280;9867;48.094;11.478;2023-04-06T12:34:09;95279.50;;;10.64;39.38
19457;BME280;9867;48.094;11.478;2023-04-06T12:36:38;95272.84;;;10.89;40.11
19457;BME280;9867;48.094;11.478;2023-04-06T12:39:07;95267.97;;;11.08;39.53
19457;BME280;9867;48.094;11.478;2023-04-06T12:41:35;95269.19;;;10.44;38.91
19457;BME280;9867;48.094;11.478;2023-04-06T12:44:03;95275.38;;;10.15;38.99
19457;BME280;9867;48.094;11.478;2023-04-06T12:46:31;95270.81;;;10.11;39.67
19457;BME280;9867;48.094;11.478;2023-04-06T12:48:59;95255.63;;;10.09;39.02
19457;BME280;9867;48.094;11.478;2023-04-06T12:51:27;95268.84;;;10.13;39.76
19457;BME280;9867;48.094;11.478;2023-04-06T12:53:55;95272.75;;;10.09;39.62
19457;BME280;9867;48.094;11.478;2023-04-06T12:56:25;95271.78;;;10.10;41.86
19457;BME280;9867;48.094;11.478;2023-04-06T12:58:53;95256.50;;;9.88;39.92
19457;BME280;9867;48.094;11.478;2023-04-06T13:01:21;95263.91;;;10.18;41.95
19457;BME280;9867;48.094;11.478;2023-04-06T13:03:49;95258.13;;;10.37;39.24
19457;BME280;9867;48.094;11.478;2023-04-06T13:06:18;95267.19;;;10.40;39.44
19457;BME280;9867;48.094;11.478;2023-04-06T13:08:45;95261.44;;;10.85;39.22
19457;BME280;9867;48.094;11.478;2023-04-06T13:11:16;95251.75;;;11.01;38.34
19457;BME280;9867;48.094;11.478;2023-04-06T13:13:48;95246.78;;;10.79;38.71
19457;BME280;9867;48.094;11.478;2023-04-06T13:16:16;95246.78;;;10.73;39.48
19457;BME280;9867;48.094;11.478;2023-04-06T13:18:44;95252.38;;;10.29;39.94